sensor_id;sensor_type;location;lat;lon;timestamp;P1;durP1;ratioP1;P2;durP2;ratioP2
73321;SDS011;61549;37.044;22.128;2022-08-05T00:00:19;4.78;;;4.38;;
73321;SDS011;61549;37.044;22.128;2022-08-05T00:02:46;7.90;;;4.63;;
73321;SDS011;61549;37.044;22.128;2022-08-05T00:05:12;6.47;;;4.75;;
73321;SDS011;61549;37.044;22.128;2022-08-05T00:07:37;5.07;;;3.97;;
73321;SDS011;61549;37.044;22.128;2022-08-05T00:10:03;5.20;;;4.70;;
73321;SDS011;61549;37.044;22.128;2022-08-05T00:12:30;5.22;;;4.70;;
73321;SDS011;61549;37.044;22.128;2022-08-05T00:14:55;5.00;;;4.50;;
73321;SDS011;61549;37.044;22.128;2022-08-05T00:17:21;5.43;;;4.53;;
73321;SDS011;61549;37.044;22.128;2022-08-05T00:19:47;5.57;;;4.35;;
73321;SDS011;61549;37.044;22.128;2022-08-05T00:22:13;4.80;;;4.40;;
73321;SDS011;61549;37.044;22.128;2022-08-05T00:24:39;5.78;;;4.93;;
73321;SDS011;61549;37.044;22.128;2022-08-05T00:27:05;5.35;;;4.63;;
73321;SDS011;61549;37.044;22.128;2022-08-05T00:29:31;12.52;;;5.20;;
73321;SDS011;61549;37.044;22.128;2022-08-05T00:31:57;7.57;;;4.63;;
73321;SDS011;61549;37.044;22.128;2022-08-05T00:34:23;9.32;;;4.65;;
73321;SDS011;61549;37.044;22.128;2022-08-05T00:36:49;6.95;;;4.53;;
73321;SDS011;61549;37.044;22.128;2022-08-05T00:39:15;5.97;;;4.50;;
73321;SDS011;61549;37.044;22.128;2022-08-05T00:41:43;7.22;;;4.68;;
73321;SDS011;61549;37.044;22.128;2022-08-05T00:44:11;7.20;;;4.63;;
73321;SDS011;61549;37.044;22.128;2022-08-05T00:46:36;4.88;;;4.32;;
73321;SDS011;61549;37.044;22.128;2022-08-05T00:49:03;4.82;;;4.38;;
73321;SDS011;61549;37.044;22.128;2022-08-05T00:51:29;5.03;;;4.60;;
73321;SDS011;61549;37.044;22.128;2022-08-05T00:53:55;4.90;;;4.47;;
73321;SDS011;61549;37.044;22.128;2022-08-05T00:56:21;5.40;;;4.90;;
73321;SDS011;61549;37.044;22.128;2022-08-05T00:58:46;5.15;;;4.40;;
73321;SDS011;61549;37.044;22.128;2022-08-05T01:01:12;6.40;;;4.72;;
73321;SDS011;61549;37.044;22.128;2022-08-05T01:03:41;5.18;;;4.45;;
73321;SDS011;61549;37.044;22.128;2022-08-05T01:06:10;5.53;;;4.72;;
73321;SDS011;61549;37.044;22.128;2022-08-05T01:08:36;5.47;;;4.53;;
73321;SDS011;61549;37.044;22.128;2022-08-05T01:11:04;4.93;;;4.40;;
73321;SDS011;61549;37.044;22.128;2022-08-05T01:16:02;5.57;;;4.90;;
73321;SDS011;61549;37.044;22.128;2022-08-05T01:18:36;8.35;;;4.65;;
73321;SDS011;61549;37.044;22.128;2022-08-05T01:21:17;5.22;;;4.72;;
73321;SDS011;61549;37.044;22.128;2022-08-05T01:24:24;6.68;;;5.00;;
73321;SDS011;61549;37.044;22.128;2022-08-05T01:29:39;6.65;;;4.60;;
73321;SDS011;61549;37.044;22.128;2022-08-05T01:32:09;5.85;;;5.00;;
73321;SDS011;61549;37.044;22.128;2022-08-05T01:34:38;6.03;;;4.90;;
73321;SDS011;61549;37.044;22.128;2022-08-05T01:39:42;5.50;;;4.90;;
73321;SDS011;61549;37.044;22.128;2022-08-05T01:42:12;5.85;;;4.85;;
73321;SDS011;61549;37.044;22.128;2022-08-05T01:44:40;5.22;;;4.72;;
73321;SDS011;61549;37.044;22.128;2022-08-05T01:47:08;5.72;;;5.00;;
73321;SDS011;61549;37.044;22.128;2022-08-05T01:49:35;6.03;;;4.80;;
73321;SDS011;61549;37.044;22.128;2022-08-05T01:52:05;5.53;;;4.90;;
73321;SDS011;61549;37.044;22.128;2022-08-05T01:54:37;5.53;;;5.03;;
73321;SDS011;61549;37.044;22.128;2022-08-05T01:57:07;5.28;;;4.78;;
73321;SDS011;61549;37.044;22.128;2022-08-05T01:59:34;5.30;;;4.80;;
73321;SDS011;61549;37.044;22.128;2022-08-05T02:02:03;5.30;;;4.80;;
73321;SDS011;61549;37.044;22.128;2022-08-05T02:04:32;5.45;;;4.70;;
73321;SDS011;61549;37.044;22.128;2022-08-05T02:07:00;5.65;;;5.05;;
73321;SDS011;61549;37.044;22.128;2022-08-05T02:09:26;5.25;;;4.72;;
73321;SDS011;61549;37.044;22.128;2022-08-05T02:14:31;5.63;;;5.13;;
73321;SDS011;61549;37.044;22.128;2022-08-05T02:17:05;5.32;;;4.93;;
73321;SDS011;61549;37.044;22.128;2022-08-05T02:19:36;5.80;;;5.30;;
73321;SDS011;61549;37.044;22.128;2022-08-05T02:22:27;5.53;;;5.03;;
73321;SDS011;61549;37.044;22.128;2022-08-05T02:25:00;7.75;;;5.13;;
73321;SDS011;61549;37.044;22.128;2022-08-05T02:27:29;5.63;;;5.13;;
73321;SDS011;61549;37.044;22.128;2022-08-05T02:29:58;6.70;;;5.07;;
73321;SDS011;61549;37.044;22.128;2022-08-05T02:32:26;6.10;;;5.20;;
73321;SDS011;61549;37.044;22.128;2022-08-05T02:34:56;6.03;;;5.40;;
73321;SDS011;61549;37.044;22.128;2022-08-05T02:37:27;6.10;;;4.82;;
73321;SDS011;61549;37.044;22.128;2022-08-05T02:39:57;6.70;;;5.10;;
73321;SDS011;61549;37.044;22.128;2022-08-05T02:42:25;5.53;;;4.90;;
73321;SDS011;61549;37.044;22.128;2022-08-05T02:44:51;5.82;;;5.20;;
73321;SDS011;61549;37.044;22.128;2022-08-05T02:47:17;5.55;;;5.05;;
73321;SDS011;61549;37.044;22.128;2022-08-05T02:49:45;6.72;;;5.20;;
73321;SDS011;61549;37.044;22.128;2022-08-05T02:52:16;7.00;;;5.05;;
73321;SDS011;61549;37.044;22.128;2022-08-05T02:54:42;6.82;;;5.38;;
73321;SDS011;61549;37.044;22.128;2022-08-05T02:57:10;8.13;;;5.35;;
73321;SDS011;61549;37.044;22.128;2022-08-05T02:59:39;5.97;;;5.38;;
73321;SDS011;61549;37.044;22.128;2022-08-05T03:02:08;5.85;;;5.35;;
73321;SDS011;61549;37.044;22.128;2022-08-05T03:04:36;6.07;;;5.45;;
73321;SDS011;61549;37.044;22.128;2022-08-05T03:07:03;6.15;;;5.45;;
73321;SDS011;61549;37.044;22.128;2022-08-05T03:09:29;5.72;;;5.13;;
73321;SDS011;61549;37.044;22.128;2022-08-05T03:11:55;8.00;;;5.32;;
73321;SDS011;61549;37.044;22.128;2022-08-05T03:14:21;6.13;;;5.53;;
73321;SDS011;61549;37.044;22.128;2022-08-05T03:16:47;6.60;;;5.10;;
73321;SDS011;61549;37.044;22.128;2022-08-05T03:19:12;5.60;;;5.10;;
73321;SDS011;61549;37.044;22.128;2022-08-05T03:21:38;5.80;;;5.20;;
73321;SDS011;61549;37.044;22.128;2022-08-05T03:24:04;6.93;;;5.13;;
73321;SDS011;61549;37.044;22.128;2022-08-05T03:26:31;7.50;;;5.60;;
73321;SDS011;61549;37.044;22.128;2022-08-05T03:28:57;5.55;;;5.05;;
73321;SDS011;61549;37.044;22.128;2022-08-05T03:31:23;6.38;;;4.97;;
73321;SDS011;61549;37.044;22.128;2022-08-05T03:33:50;6.25;;;5.32;;
73321;SDS011;61549;37.044;22.128;2022-08-05T03:36:17;5.22;;;4.72;;
73321;SDS011;61549;37.044;22.128;2022-08-05T03:38:43;7.75;;;4.82;;
73321;SDS011;61549;37.044;22.128;2022-08-05T03:41:08;5.53;;;4.72;;
73321;SDS011;61549;37.044;22.128;2022-08-05T03:43:35;5.20;;;4.70;;
73321;SDS011;61549;37.044;22.128;2022-08-05T03:46:01;6.85;;;4.70;;
73321;SDS011;61549;37.044;22.128;2022-08-05T03:48:28;8.35;;;4.47;;
73321;SDS011;61549;37.044;22.128;2022-08-05T03:53:49;7.30;;;4.40;;
73321;SDS011;61549;37.044;22.128;2022-08-05T03:56:21;5.90;;;4.75;;
73321;SDS011;61549;37.044;22.128;2022-08-05T03:58:54;8.85;;;4.60;;
73321;SDS011;61549;37.044;22.128;2022-08-05T04:01:24;7.35;;;4.43;;
73321;SDS011;61549;37.044;22.128;2022-08-05T04:03:52;13.25;;;4.40;;
73321;SDS011;61549;37.044;22.128;2022-08-05T04:06:19;7.85;;;4.50;;
73321;SDS011;61549;37.044;22.128;2022-08-05T04:08:48;6.20;;;4.22;;
73321;SDS011;61549;37.044;22.128;2022-08-05T04:11:18;6.90;;;4.10;;
73321;SDS011;61549;37.044;22.128;2022-08-05T04:13:44;5.32;;;3.90;;
73321;SDS011;61549;37.044;22.128;2022-08-05T04:16:11;5.90;;;4.38;;
73321;SDS011;61549;37.044;22.128;2022-08-05T04:18:38;7.07;;;4.90;;
73321;SDS011;61549;37.044;22.128;2022-08-05T04:21:05;6.20;;;4.38;;
73321;SDS011;61549;37.044;22.128;2022-08-05T04:23:31;5.93;;;4.30;;
73321;SDS011;61549;37.044;22.128;2022-08-05T04:26:00;5.10;;;4.60;;
73321;SDS011;61549;37.044;22.128;2022-08-05T04:28:25;7.85;;;4.82;;
73321;SDS011;61549;37.044;22.128;2022-08-05T04:30:51;6.55;;;4.80;;
73321;SDS011;61549;37.044;22.128;2022-08-05T04:33:17;6.60;;;4.75;;
73321;SDS011;61549;37.044;22.128;2022-08-05T04:35:43;6.75;;;5.07;;
73321;SDS011;61549;37.044;22.128;2022-08-05T04:38:09;5.63;;;4.80;;
73321;SDS011;61549;37.044;22.128;2022-08-05T04:40:35;10.75;;;4.78;;
73321;SDS011;61549;37.044;22.128;2022-08-05T04:43:03;5.75;;;4.82;;
73321;SDS011;61549;37.044;22.128;2022-08-05T04:45:29;7.32;;;5.03;;
73321;SDS011;61549;37.044;22.128;2022-08-05T04:48:05;5.95;;;5.10;;
73321;SDS011;61549;37.044;22.128;2022-08-05T04:50:39;4.95;;;4.50;;
73321;SDS011;61549;37.044;22.128;2022-08-05T04:53:06;5.57;;;5.00;;
73321;SDS011;61549;37.044;22.128;2022-08-05T04:55:34;9.00;;;5.20;;
73321;SDS011;61549;37.044;22.128;2022-08-05T04:58:01;6.13;;;4.55;;
73321;SDS011;61549;37.044;22.128;2022-08-05T05:00:27;6.10;;;4.88;;
73321;SDS011;61549;37.044;22.128;2022-08-05T05:02:53;6.03;;;4.88;;
73321;SDS011;61549;37.044;22.128;2022-08-05T05:05:18;5.85;;;4.70;;
73321;SDS011;61549;37.044;22.128;2022-08-05T05:07:44;5.97;;;4.95;;
73321;SDS011;61549;37.044;22.128;2022-08-05T05:10:10;5.10;;;4.60;;
73321;SDS011;61549;37.044;22.128;2022-08-05T05:12:36;5.90;;;4.95;;
73321;SDS011;61549;37.044;22.128;2022-08-05T05:15:02;4.97;;;4.25;;
73321;SDS011;61549;37.044;22.128;2022-08-05T05:17:35;6.38;;;5.00;;
73321;SDS011;61549;37.044;22.128;2022-08-05T05:20:04;5.40;;;4.60;;
73321;SDS011;61549;37.044;22.128;2022-08-05T05:22:31;6.13;;;4.55;;
73321;SDS011;61549;37.044;22.128;2022-08-05T05:24:56;5.07;;;4.57;;
73321;SDS011;61549;37.044;22.128;2022-08-05T05:27:28;5.28;;;4.78;;
73321;SDS011;61549;37.044;22.128;2022-08-05T05:29:55;6.60;;;4.95;;
73321;SDS011;61549;37.044;22.128;2022-08-05T05:32:21;4.85;;;4.35;;
73321;SDS011;61549;37.044;22.128;2022-08-05T05:34:47;5.70;;;4.10;;
73321;SDS011;61549;37.044;22.128;2022-08-05T05:37:13;5.03;;;4.18;;
73321;SDS011;61549;37.044;22.128;2022-08-05T05:39:40;4.88;;;4.28;;
73321;SDS011;61549;37.044;22.128;2022-08-05T05:42:06;5.85;;;3.95;;
73321;SDS011;61549;37.044;22.128;2022-08-05T05:44:32;5.68;;;4.40;;
73321;SDS011;61549;37.044;22.128;2022-08-05T05:46:58;4.88;;;4.15;;
73321;SDS011;61549;37.044;22.128;2022-08-05T05:49:24;4.88;;;4.15;;
73321;SDS011;61549;37.044;22.128;2022-08-05T05:51:51;5.93;;;4.28;;
73321;SDS011;61549;37.044;22.128;2022-08-05T05:54:18;5.47;;;4.13;;
73321;SDS011;61549;37.044;22.128;2022-08-05T05:56:44;5.32;;;4.00;;
73321;SDS011;61549;37.044;22.128;2022-08-05T05:59:10;4.50;;;4.10;;
73321;SDS011;61549;37.044;22.128;2022-08-05T06:01:36;4.85;;;3.90;;
73321;SDS011;61549;37.044;22.128;2022-08-05T06:04:04;6.93;;;4.32;;
73321;SDS011;61549;37.044;22.128;2022-08-05T06:06:33;7.13;;;4.35;;
73321;SDS011;61549;37.044;22.128;2022-08-05T06:09:00;7.65;;;4.50;;
73321;SDS011;61549;37.044;22.128;2022-08-05T06:11:27;7.53;;;4.57;;
73321;SDS011;61549;37.044;22.128;2022-08-05T06:13:52;6.07;;;5.22;;
73321;SDS011;61549;37.044;22.128;2022-08-05T06:16:18;7.13;;;5.00;;
73321;SDS011;61549;37.044;22.128;2022-08-05T06:18:44;6.55;;;4.88;;
73321;SDS011;61549;37.044;22.128;2022-08-05T06:21:10;7.82;;;4.60;;
73321;SDS011;61549;37.044;22.128;2022-08-05T06:23:36;5.00;;;4.05;;
73321;SDS011;61549;37.044;22.128;2022-08-05T06:26:01;7.93;;;4.10;;
73321;SDS011;61549;37.044;22.128;2022-08-05T06:28:27;4.40;;;4.00;;
73321;SDS011;61549;37.044;22.128;2022-08-05T06:30:53;4.65;;;4.00;;
73321;SDS011;61549;37.044;22.128;2022-08-05T06:33:19;5.82;;;4.18;;
73321;SDS011;61549;37.044;22.128;2022-08-05T06:35:45;4.22;;;3.83;;
73321;SDS011;61549;37.044;22.128;2022-08-05T06:38:11;4.97;;;3.88;;
73321;SDS011;61549;37.044;22.128;2022-08-05T06:40:38;3.85;;;3.45;;
73321;SDS011;61549;37.044;22.128;2022-08-05T06:43:04;6.30;;;3.95;;
73321;SDS011;61549;37.044;22.128;2022-08-05T06:45:30;4.15;;;3.72;;
73321;SDS011;61549;37.044;22.128;2022-08-05T06:47:56;5.75;;;3.80;;
73321;SDS011;61549;37.044;22.128;2022-08-05T06:50:21;5.28;;;3.60;;
73321;SDS011;61549;37.044;22.128;2022-08-05T06:52:49;4.13;;;3.47;;
73321;SDS011;61549;37.044;22.128;2022-08-05T06:55:14;4.70;;;3.72;;
73321;SDS011;61549;37.044;22.128;2022-08-05T06:57:41;4.20;;;3.80;;
73321;SDS011;61549;37.044;22.128;2022-08-05T07:00:07;4.20;;;3.58;;
73321;SDS011;61549;37.044;22.128;2022-08-05T07:02:41;5.35;;;3.60;;
73321;SDS011;61549;37.044;22.128;2022-08-05T07:05:10;4.28;;;3.53;;
73321;SDS011;61549;37.044;22.128;2022-08-05T07:07:37;3.97;;;3.40;;
73321;SDS011;61549;37.044;22.128;2022-08-05T07:10:04;3.88;;;3.58;;
73321;SDS011;61549;37.044;22.128;2022-08-05T07:12:30;3.70;;;3.40;;
73321;SDS011;61549;37.044;22.128;2022-08-05T07:15:15;3.97;;;3.40;;
73321;SDS011;61549;37.044;22.128;2022-08-05T07:17:59;8.85;;;3.75;;
73321;SDS011;61549;37.044;22.128;2022-08-05T07:20:24;5.75;;;3.47;;
73321;SDS011;61549;37.044;22.128;2022-08-05T07:22:50;4.40;;;3.70;;
73321;SDS011;61549;37.044;22.128;2022-08-05T07:25:16;3.40;;;3.10;;
73321;SDS011;61549;37.044;22.128;2022-08-05T07:27:42;8.38;;;3.53;;
73321;SDS011;61549;37.044;22.128;2022-08-05T07:30:08;5.03;;;3.42;;
73321;SDS011;61549;37.044;22.128;2022-08-05T07:32:35;4.22;;;3.22;;
73321;SDS011;61549;37.044;22.128;2022-08-05T07:35:06;4.00;;;3.50;;
73321;SDS011;61549;37.044;22.128;2022-08-05T07:37:35;4.93;;;3.50;;
73321;SDS011;61549;37.044;22.128;2022-08-05T07:40:02;3.60;;;3.30;;
73321;SDS011;61549;37.044;22.128;2022-08-05T07:42:29;5.50;;;3.40;;
73321;SDS011;61549;37.044;22.128;2022-08-05T07:44:55;4.25;;;3.30;;
73321;SDS011;61549;37.044;22.128;2022-08-05T07:47:21;5.85;;;3.90;;
73321;SDS011;61549;37.044;22.128;2022-08-05T07:49:47;4.95;;;3.67;;
73321;SDS011;61549;37.044;22.128;2022-08-05T07:52:16;4.90;;;3.40;;
73321;SDS011;61549;37.044;22.128;2022-08-05T07:54:42;3.30;;;3.00;;
73321;SDS011;61549;37.044;22.128;2022-08-05T07:57:08;4.88;;;3.08;;
73321;SDS011;61549;37.044;22.128;2022-08-05T07:59:34;7.47;;;3.55;;
73321;SDS011;61549;37.044;22.128;2022-08-05T08:02:01;4.35;;;3.33;;
73321;SDS011;61549;37.044;22.128;2022-08-05T08:04:27;3.85;;;3.42;;
73321;SDS011;61549;37.044;22.128;2022-08-05T08:06:53;4.85;;;3.35;;
73321;SDS011;61549;37.044;22.128;2022-08-05T08:09:19;4.75;;;3.33;;
73321;SDS011;61549;37.044;22.128;2022-08-05T08:11:45;5.18;;;3.25;;
73321;SDS011;61549;37.044;22.128;2022-08-05T08:14:11;3.47;;;3.17;;
73321;SDS011;61549;37.044;22.128;2022-08-05T08:16:37;3.45;;;2.90;;
73321;SDS011;61549;37.044;22.128;2022-08-05T08:19:03;4.57;;;3.63;;
73321;SDS011;61549;37.044;22.128;2022-08-05T08:21:29;4.20;;;3.22;;
73321;SDS011;61549;37.044;22.128;2022-08-05T08:23:54;3.85;;;3.30;;
73321;SDS011;61549;37.044;22.128;2022-08-05T08:26:20;4.00;;;2.60;;
73321;SDS011;61549;37.044;22.128;2022-08-05T08:28:46;2.88;;;2.45;;
73321;SDS011;61549;37.044;22.128;2022-08-05T08:31:12;3.58;;;2.70;;
73321;SDS011;61549;37.044;22.128;2022-08-05T08:33:38;4.03;;;3.00;;
73321;SDS011;61549;37.044;22.128;2022-08-05T08:36:07;3.28;;;3.03;;
73321;SDS011;61549;37.044;22.128;2022-08-05T08:38:33;4.80;;;4.25;;
73321;SDS011;61549;37.044;22.128;2022-08-05T08:40:59;4.65;;;3.90;;
73321;SDS011;61549;37.044;22.128;2022-08-05T08:43:31;4.82;;;3.80;;
73321;SDS011;61549;37.044;22.128;2022-08-05T08:45:58;4.55;;;3.63;;
73321;SDS011;61549;37.044;22.128;2022-08-05T08:48:27;4.72;;;3.50;;
73321;SDS011;61549;37.044;22.128;2022-08-05T08:50:56;5.65;;;3.85;;
73321;SDS011;61549;37.044;22.128;2022-08-05T08:53:24;5.50;;;3.70;;
73321;SDS011;61549;37.044;22.128;2022-08-05T08:55:55;3.90;;;3.53;;
73321;SDS011;61549;37.044;22.128;2022-08-05T08:58:21;4.65;;;3.33;;
73321;SDS011;61549;37.044;22.128;2022-08-05T09:00:47;4.47;;;3.42;;
73321;SDS011;61549;37.044;22.128;2022-08-05T09:03:13;4.90;;;3.22;;
73321;SDS011;61549;37.044;22.128;2022-08-05T09:05:39;4.60;;;3.45;;
73321;SDS011;61549;37.044;22.128;2022-08-05T09:08:04;6.53;;;3.50;;
73321;SDS011;61549;37.044;22.128;2022-08-05T09:10:31;4.85;;;3.20;;
73321;SDS011;61549;37.044;22.128;2022-08-05T09:12:57;3.78;;;3.45;;
73321;SDS011;61549;37.044;22.128;2022-08-05T09:15:23;5.38;;;3.42;;
73321;SDS011;61549;37.044;22.128;2022-08-05T09:17:49;3.85;;;3.42;;
73321;SDS011;61549;37.044;22.128;2022-08-05T09:20:15;3.67;;;3.30;;
73321;SDS011;61549;37.044;22.128;2022-08-05T09:25:26;7.00;;;3.50;;
73321;SDS011;61549;37.044;22.128;2022-08-05T09:27:52;4.82;;;3.15;;
73321;SDS011;61549;37.044;22.128;2022-08-05T09:30:18;4.05;;;3.70;;
73321;SDS011;61549;37.044;22.128;2022-08-05T09:32:44;5.43;;;3.70;;
73321;SDS011;61549;37.044;22.128;2022-08-05T09:35:11;6.30;;;3.92;;
73321;SDS011;61549;37.044;22.128;2022-08-05T09:37:39;5.53;;;3.50;;
73321;SDS011;61549;37.044;22.128;2022-08-05T09:40:36;6.25;;;3.83;;
73321;SDS011;61549;37.044;22.128;2022-08-05T09:43:06;4.00;;;3.70;;
73321;SDS011;61549;37.044;22.128;2022-08-05T09:45:49;3.70;;;3.40;;
73321;SDS011;61549;37.044;22.128;2022-08-05T09:48:18;6.00;;;3.80;;
73321;SDS011;61549;37.044;22.128;2022-08-05T09:50:52;6.63;;;3.58;;
73321;SDS011;61549;37.044;22.128;2022-08-05T09:53:20;3.90;;;3.60;;
73321;SDS011;61549;37.044;22.128;2022-08-05T09:55:49;3.80;;;3.40;;
73321;SDS011;61549;37.044;22.128;2022-08-05T09:58:16;4.75;;;3.75;;
73321;SDS011;61549;37.044;22.128;2022-08-05T10:03:28;3.88;;;3.58;;
73321;SDS011;61549;37.044;22.128;2022-08-05T10:06:07;4.68;;;3.70;;
73321;SDS011;61549;37.044;22.128;2022-08-05T10:08:35;4.97;;;3.70;;
73321;SDS011;61549;37.044;22.128;2022-08-05T10:11:03;5.32;;;3.50;;
73321;SDS011;61549;37.044;22.128;2022-08-05T10:13:37;5.22;;;3.60;;
73321;SDS011;61549;37.044;22.128;2022-08-05T10:16:03;4.13;;;3.55;;
73321;SDS011;61549;37.044;22.128;2022-08-05T10:18:31;4.00;;;3.60;;
73321;SDS011;61549;37.044;22.128;2022-08-05T10:20:59;5.07;;;3.67;;
73321;SDS011;61549;37.044;22.128;2022-08-05T10:23:32;4.03;;;3.60;;
73321;SDS011;61549;37.044;22.128;2022-08-05T10:26:06;3.67;;;3.30;;
73321;SDS011;61549;37.044;22.128;2022-08-05T10:28:34;4.43;;;3.80;;
73321;SDS011;61549;37.044;22.128;2022-08-05T10:31:00;5.60;;;3.60;;
73321;SDS011;61549;37.044;22.128;2022-08-05T10:33:28;4.07;;;3.30;;
73321;SDS011;61549;37.044;22.128;2022-08-05T10:35:55;3.95;;;3.53;;
73321;SDS011;61549;37.044;22.128;2022-08-05T10:38:23;3.70;;;3.40;;
73321;SDS011;61549;37.044;22.128;2022-08-05T10:40:59;3.65;;;3.10;;
73321;SDS011;61549;37.044;22.128;2022-08-05T10:46:11;3.80;;;3.47;;
73321;SDS011;61549;37.044;22.128;2022-08-05T10:48:40;5.00;;;3.45;;
73321;SDS011;61549;37.044;22.128;2022-08-05T10:51:11;4.90;;;3.65;;
73321;SDS011;61549;37.044;22.128;2022-08-05T10:53:55;3.80;;;3.45;;
73321;SDS011;61549;37.044;22.128;2022-08-05T10:56:23;3.88;;;3.58;;
73321;SDS011;61549;37.044;22.128;2022-08-05T11:09:25;3.70;;;3.40;;
73321;SDS011;61549;37.044;22.128;2022-08-05T11:12:01;3.67;;;3.30;;
73321;SDS011;61549;37.044;22.128;2022-08-05T11:14:28;4.40;;;3.40;;
73321;SDS011;61549;37.044;22.128;2022-08-05T11:19:52;5.32;;;3.35;;
73321;SDS011;61549;37.044;22.128;2022-08-05T11:33:51;5.07;;;3.50;;
73321;SDS011;61549;37.044;22.128;2022-08-05T11:36:15;4.38;;;3.47;;
73321;SDS011;61549;37.044;22.128;2022-08-05T11:41:48;3.65;;;3.35;;
73321;SDS011;61549;37.044;22.128;2022-08-05T11:44:11;4.85;;;3.35;;
73321;SDS011;61549;37.044;22.128;2022-08-05T11:49:13;4.30;;;3.45;;
73321;SDS011;61549;37.044;22.128;2022-08-05T11:51:42;4.07;;;3.67;;
73321;SDS011;61549;37.044;22.128;2022-08-05T11:54:09;3.83;;;3.53;;
73321;SDS011;61549;37.044;22.128;2022-08-05T11:56:43;4.22;;;3.08;;
73321;SDS011;61549;37.044;22.128;2022-08-05T11:59:17;3.67;;;3.38;;
73321;SDS011;61549;37.044;22.128;2022-08-05T12:02:22;5.13;;;3.35;;
73321;SDS011;61549;37.044;22.128;2022-08-05T12:04:40;3.78;;;3.40;;
73321;SDS011;61549;37.044;22.128;2022-08-05T12:07:09;3.58;;;3.25;;
73321;SDS011;61549;37.044;22.128;2022-08-05T12:09:41;3.60;;;3.30;;
73321;SDS011;61549;37.044;22.128;2022-08-05T12:12:20;5.28;;;3.30;;
73321;SDS011;61549;37.044;22.128;2022-08-05T12:14:53;3.83;;;3.30;;
73321;SDS011;61549;37.044;22.128;2022-08-05T12:17:20;6.43;;;3.20;;
73321;SDS011;61549;37.044;22.128;2022-08-05T12:19:46;3.95;;;2.92;;
73321;SDS011;61549;37.044;22.128;2022-08-05T12:22:18;5.28;;;3.25;;
73321;SDS011;61549;37.044;22.128;2022-08-05T12:24:47;3.78;;;3.25;;
73321;SDS011;61549;37.044;22.128;2022-08-05T12:27:20;5.30;;;3.50;;
73321;SDS011;61549;37.044;22.128;2022-08-05T12:30:01;3.88;;;3.58;;
73321;SDS011;61549;37.044;22.128;2022-08-05T12:32:31;3.85;;;3.55;;
73321;SDS011;61549;37.044;22.128;2022-08-05T12:34:59;4.65;;;3.15;;
73321;SDS011;61549;37.044;22.128;2022-08-05T12:37:29;3.75;;;3.30;;
73321;SDS011;61549;37.044;22.128;2022-08-05T12:39:56;4.00;;;3.63;;
73321;SDS011;61549;37.044;22.128;2022-08-05T12:42:22;3.88;;;3.47;;
73321;SDS011;61549;37.044;22.128;2022-08-05T12:44:59;3.80;;;3.40;;
73321;SDS011;61549;37.044;22.128;2022-08-05T12:47:33;3.45;;;3.13;;
73321;SDS011;61549;37.044;22.128;2022-08-05T12:49:59;4.35;;;3.20;;
73321;SDS011;61549;37.044;22.128;2022-08-05T12:52:39;4.65;;;3.30;;
73321;SDS011;61549;37.044;22.128;2022-08-05T12:55:24;3.35;;;3.15;;
73321;SDS011;61549;37.044;22.128;2022-08-05T12:57:52;3.85;;;3.35;;
73321;SDS011;61549;37.044;22.128;2022-08-05T13:00:20;3.42;;;3.10;;
73321;SDS011;61549;37.044;22.128;2022-08-05T13:02:48;3.10;;;2.90;;
73321;SDS011;61549;37.044;22.128;2022-08-05T13:05:16;3.15;;;2.85;;
73321;SDS011;61549;37.044;22.128;2022-08-05T13:07:42;3.40;;;2.83;;
73321;SDS011;61549;37.044;22.128;2022-08-05T13:10:10;3.40;;;3.10;;
73321;SDS011;61549;37.044;22.128;2022-08-05T13:12:38;3.13;;;2.92;;
73321;SDS011;61549;37.044;22.128;2022-08-05T13:15:08;5.10;;;3.20;;
73321;SDS011;61549;37.044;22.128;2022-08-05T13:17:35;3.28;;;2.90;;
73321;SDS011;61549;37.044;22.128;2022-08-05T13:20:07;3.38;;;2.90;;
73321;SDS011;61549;37.044;22.128;2022-08-05T13:22:39;3.28;;;2.97;;
73321;SDS011;61549;37.044;22.128;2022-08-05T13:25:10;3.78;;;3.00;;
73321;SDS011;61549;37.044;22.128;2022-08-05T13:27:41;3.80;;;3.50;;
73321;SDS011;61549;37.044;22.128;2022-08-05T13:30:12;5.03;;;3.55;;
73321;SDS011;61549;37.044;22.128;2022-08-05T13:32:40;3.90;;;3.20;;
73321;SDS011;61549;37.044;22.128;2022-08-05T13:35:06;3.40;;;3.10;;
73321;SDS011;61549;37.044;22.128;2022-08-05T13:37:33;4.13;;;3.22;;
73321;SDS011;61549;37.044;22.128;2022-08-05T13:39:59;5.03;;;3.13;;
73321;SDS011;61549;37.044;22.128;2022-08-05T13:42:25;5.15;;;3.13;;
73321;SDS011;61549;37.044;22.128;2022-08-05T13:44:52;3.90;;;3.20;;
73321;SDS011;61549;37.044;22.128;2022-08-05T13:47:19;3.60;;;3.30;;
73321;SDS011;61549;37.044;22.128;2022-08-05T13:49:46;4.18;;;3.78;;
73321;SDS011;61549;37.044;22.128;2022-08-05T13:52:19;4.75;;;3.80;;
73321;SDS011;61549;37.044;22.128;2022-08-05T13:54:47;3.80;;;3.50;;
73321;SDS011;61549;37.044;22.128;2022-08-05T13:57:13;4.20;;;3.00;;
73321;SDS011;61549;37.044;22.128;2022-08-05T13:59:39;3.58;;;3.30;;
73321;SDS011;61549;37.044;22.128;2022-08-05T14:02:07;5.22;;;3.35;;
73321;SDS011;61549;37.044;22.128;2022-08-05T14:04:43;4.72;;;3.40;;
73321;SDS011;61549;37.044;22.128;2022-08-05T14:09:59;3.50;;;3.20;;
73321;SDS011;61549;37.044;22.128;2022-08-05T14:12:25;4.13;;;3.45;;
73321;SDS011;61549;37.044;22.128;2022-08-05T14:14:51;3.58;;;3.28;;
73321;SDS011;61549;37.044;22.128;2022-08-05T14:17:17;3.75;;;3.28;;
73321;SDS011;61549;37.044;22.128;2022-08-05T14:19:43;3.67;;;3.30;;
73321;SDS011;61549;37.044;22.128;2022-08-05T14:22:10;3.70;;;3.40;;
73321;SDS011;61549;37.044;22.128;2022-08-05T14:24:36;3.40;;;3.10;;
73321;SDS011;61549;37.044;22.128;2022-08-05T14:27:04;4.18;;;3.60;;
73321;SDS011;61549;37.044;22.128;2022-08-05T14:29:30;5.18;;;3.97;;
73321;SDS011;61549;37.044;22.128;2022-08-05T14:31:56;6.03;;;3.90;;
73321;SDS011;61549;37.044;22.128;2022-08-05T14:34:22;3.70;;;3.40;;
73321;SDS011;61549;37.044;22.128;2022-08-05T14:36:48;4.03;;;3.47;;
73321;SDS011;61549;37.044;22.128;2022-08-05T14:39:14;4.00;;;3.70;;
73321;SDS011;61549;37.044;22.128;2022-08-05T14:41:40;4.72;;;3.72;;
73321;SDS011;61549;37.044;22.128;2022-08-05T14:44:06;4.70;;;3.80;;
73321;SDS011;61549;37.044;22.128;2022-08-05T14:46:32;4.18;;;3.50;;
73321;SDS011;61549;37.044;22.128;2022-08-05T14:48:59;5.18;;;3.58;;
73321;SDS011;61549;37.044;22.128;2022-08-05T14:51:26;4.85;;;3.60;;
73321;SDS011;61549;37.044;22.128;2022-08-05T14:53:52;4.40;;;3.70;;
73321;SDS011;61549;37.044;22.128;2022-08-05T14:56:18;4.10;;;3.70;;
73321;SDS011;61549;37.044;22.128;2022-08-05T14:58:44;6.30;;;3.80;;
73321;SDS011;61549;37.044;22.128;2022-08-05T15:01:09;5.72;;;3.50;;
73321;SDS011;61549;37.044;22.128;2022-08-05T15:03:35;4.00;;;3.60;;
73321;SDS011;61549;37.044;22.128;2022-08-05T15:06:02;3.95;;;3.63;;
73321;SDS011;61549;37.044;22.128;2022-08-05T15:08:29;3.60;;;3.30;;
73321;SDS011;61549;37.044;22.128;2022-08-05T15:10:54;6.95;;;3.40;;
73321;SDS011;61549;37.044;22.128;2022-08-05T15:13:21;5.25;;;3.30;;
73321;SDS011;61549;37.044;22.128;2022-08-05T15:15:47;4.05;;;3.25;;
73321;SDS011;61549;37.044;22.128;2022-08-05T15:18:13;4.18;;;3.78;;
73321;SDS011;61549;37.044;22.128;2022-08-05T15:20:39;3.50;;;3.20;;
73321;SDS011;61549;37.044;22.128;2022-08-05T15:23:05;5.80;;;3.60;;
73321;SDS011;61549;37.044;22.128;2022-08-05T15:25:32;4.03;;;3.70;;
73321;SDS011;61549;37.044;22.128;2022-08-05T15:27:58;4.32;;;3.30;;
73321;SDS011;61549;37.044;22.128;2022-08-05T15:30:24;3.95;;;3.55;;
73321;SDS011;61549;37.044;22.128;2022-08-05T15:32:50;4.70;;;3.53;;